Terminal Aerodrome Forecast
Issued by NWS Sioux Falls, SD

Home | Current Version | Previous Version | Text Only | Print | Product List | Glossary On
Versions: 1 2 3 4 5 6 7 8 9 10 11 12 13 14 15
473
FTUS43 KFSD 201120
TAFHON
TAF
KHON 201120Z 2012/2112 04006KT 5SM BR BKN050
     FM201400 07006KT P6SM BKN250
     FM201600 10008KT P6SM SCT250
     FM210700 13007KT P6SM BKN140=

USA.gov is the U.S. government's official web portal to all federal, state and local government web resources and services.